createdAt,value
2023-02-22T00:11:48.765Z,19.92
2023-02-22T00:16:45.467Z,18.60
2023-02-22T00:21:44.864Z,22.88
2023-02-22T00:26:41.556Z,22.65
2023-02-22T00:31:39.363Z,23.42
2023-02-22T00:36:36.081Z,21.13
2023-02-22T00:41:32.816Z,21.50
2023-02-22T00:46:32.266Z,25.30
2023-02-22T00:51:28.998Z,24.10
2023-02-22T01:01:24.057Z,28.90
2023-02-22T01:06:21.085Z,32.05
2023-02-22T01:16:14.900Z,30.88
2023-02-22T01:26:08.163Z,29.63
2023-02-22T01:31:05.577Z,34.70
2023-02-22T01:36:02.199Z,27.88
2023-02-22T01:40:59.017Z,26.45
2023-02-22T01:51:10.957Z,23.15
2023-02-22T01:56:07.977Z,30.60
2023-02-22T02:06:03.066Z,33.72
2023-02-22T02:11:00.013Z,33.58
2023-02-22T02:15:57.017Z,40.03
2023-02-22T02:21:32.074Z,38.40
2023-02-22T02:26:57.928Z,36.78
2023-02-22T02:32:06.287Z,32.33
2023-02-22T02:37:11.411Z,37.42
2023-02-22T02:42:14.620Z,38.88
2023-02-22T02:47:17.843Z,31.48
2023-02-22T02:52:25.354Z,33.65
2023-02-22T03:02:39.732Z,28.10
2023-02-22T03:07:57.875Z,32.03
2023-02-22T03:18:00.844Z,21.90
2023-02-22T03:23:07.356Z,21.98
2023-02-22T03:28:07.501Z,23.40
2023-02-22T03:33:09.130Z,20.95
2023-02-22T03:38:08.439Z,20.33
2023-02-22T03:43:15.998Z,16.58
2023-02-22T03:48:39.156Z,20.33
2023-02-22T03:53:38.937Z,21.13
2023-02-22T03:58:37.865Z,17.13
2023-02-22T04:03:34.495Z,19.45
2023-02-22T04:08:31.212Z,17.90
2023-02-22T04:13:28.463Z,18.38
2023-02-22T04:18:25.009Z,19.15
2023-02-22T04:23:21.745Z,21.35
2023-02-22T04:28:18.970Z,17.13
2023-02-22T04:33:50.561Z,17.83
2023-02-22T04:44:54.310Z,18.98
2023-02-22T04:49:51.193Z,18.48
2023-02-22T04:54:47.768Z,20.75
2023-02-22T05:12:53.062Z,22.05
2023-02-22T05:17:49.949Z,20.88
2023-02-22T05:22:48.422Z,22.38
2023-02-22T05:27:45.208Z,23.40
2023-02-22T05:37:38.924Z,27.33
2023-02-22T05:42:37.673Z,25.80
2023-02-22T05:47:34.289Z,26.98
2023-02-22T05:52:30.880Z,23.88
2023-02-22T05:57:27.413Z,26.02
2023-02-22T06:02:25.044Z,29.83
2023-02-22T06:07:22.628Z,26.70
2023-02-22T06:12:19.256Z,29.80
2023-02-22T06:17:16.042Z,30.83
2023-02-22T06:27:13.471Z,29.83
2023-02-22T06:32:09.931Z,29.77
2023-02-22T06:37:08.345Z,32.10
2023-02-22T06:42:07.909Z,36.08
2023-02-22T06:47:04.517Z,33.85
2023-02-22T06:52:01.039Z,33.28
2023-02-22T07:12:26.067Z,33.88
2023-02-22T07:17:28.155Z,32.67
2023-02-22T07:22:32.916Z,28.83
2023-02-22T07:27:31.342Z,30.98
2023-02-22T07:32:29.197Z,33.30
2023-02-22T07:37:25.722Z,35.30
2023-02-22T07:42:24.611Z,30.27
2023-02-22T07:47:21.148Z,29.02
2023-02-22T07:52:19.772Z,26.65
2023-02-22T07:57:16.434Z,25.17
2023-02-22T08:02:16.047Z,23.55
2023-02-22T08:07:12.663Z,25.33
2023-02-22T08:12:09.252Z,27.30
2023-02-22T08:17:07.719Z,28.13
2023-02-22T08:22:11.658Z,22.42
2023-02-22T08:27:11.083Z,24.17
2023-02-22T08:32:12.310Z,22.85
2023-02-22T08:37:14.452Z,22.40
2023-02-22T08:42:22.126Z,22.70
2023-02-22T08:47:22.016Z,21.58
2023-02-22T08:52:21.680Z,21.17
2023-02-22T08:57:20.748Z,21.13
2023-02-22T09:02:23.873Z,21.60
2023-02-22T09:07:25.210Z,20.60
2023-02-22T09:17:39.678Z,22.30
2023-02-22T09:22:36.312Z,21.40
2023-02-22T09:27:35.865Z,21.75
2023-02-22T09:37:58.067Z,25.15
2023-02-22T09:43:16.941Z,20.75
2023-02-22T09:48:21.590Z,24.83
2023-02-22T09:53:31.870Z,22.30
2023-02-22T09:58:34.760Z,26.05
2023-02-22T10:03:54.592Z,23.02
2023-02-22T10:09:16.371Z,21.30
2023-02-22T10:14:48.160Z,23.77
2023-02-22T10:20:10.899Z,26.35
2023-02-22T10:25:14.870Z,22.50
2023-02-22T10:30:34.003Z,22.75
2023-02-22T10:35:34.275Z,21.38
2023-02-22T10:40:33.832Z,20.38
2023-02-22T10:45:34.741Z,20.75
2023-02-22T10:50:35.035Z,20.13
2023-02-22T10:55:35.118Z,21.80
2023-02-22T11:00:39.654Z,21.60
2023-02-22T11:05:41.692Z,21.00
2023-02-22T11:10:45.047Z,22.02
2023-02-22T11:15:45.237Z,21.88
2023-02-22T11:20:42.344Z,21.75
2023-02-22T11:25:44.978Z,19.45
2023-02-22T11:30:44.617Z,22.17
2023-02-22T11:41:42.818Z,19.85
2023-02-22T11:46:53.856Z,18.65
2023-02-22T11:58:09.172Z,17.15
2023-02-22T12:09:14.301Z,19.63
2023-02-22T12:14:25.388Z,17.85
2023-02-22T12:20:14.272Z,20.02
2023-02-22T12:25:23.749Z,19.75
2023-02-22T12:36:04.146Z,19.08
2023-02-22T12:41:45.299Z,20.90
2023-02-22T12:47:47.112Z,17.65
2023-02-22T12:58:43.047Z,18.60
2023-02-22T13:16:46.363Z,38.70
2023-02-22T13:22:00.393Z,17.27
2023-02-22T13:27:38.504Z,15.73
2023-02-22T13:33:15.880Z,13.98
2023-02-22T13:45:03.944Z,15.82
2023-02-22T13:50:28.265Z,17.23
2023-02-22T14:07:47.809Z,16.27
2023-02-22T14:25:09.817Z,13.60
2023-02-22T14:36:07.884Z,14.60
2023-02-22T14:41:24.866Z,16.33
2023-02-22T14:46:32.218Z,15.77
2023-02-22T14:51:40.809Z,15.35
2023-02-22T15:02:46.509Z,20.15
2023-02-22T15:19:51.066Z,21.52
2023-02-22T15:25:00.913Z,18.08
2023-02-22T15:30:07.459Z,18.25
2023-02-22T15:35:31.159Z,17.70
2023-02-22T15:40:43.650Z,16.20
2023-02-22T15:45:43.287Z,18.50
2023-02-22T15:51:05.276Z,17.10
2023-02-22T15:56:09.590Z,17.63
2023-02-22T16:18:00.887Z,18.38
2023-02-22T16:23:00.676Z,17.00
2023-02-22T16:28:03.179Z,16.92
2023-02-22T16:33:10.908Z,16.30
2023-02-22T16:39:14.667Z,17.45
2023-02-22T17:08:35.664Z,18.20
2023-02-22T17:46:42.947Z,18.40
2023-02-22T21:40:23.679Z,17.25
2023-02-22T21:45:21.674Z,18.55
2023-02-22T21:50:19.114Z,18.40
2023-02-22T21:55:15.878Z,18.58
2023-02-22T22:16:24.194Z,21.02
2023-02-22T22:21:41.420Z,19.08
2023-02-22T22:26:38.696Z,19.48
2023-02-22T22:31:35.440Z,23.17
2023-02-22T22:41:48.048Z,18.58
2023-02-22T22:46:48.977Z,16.70
2023-02-22T22:57:48.354Z,19.55
2023-02-22T23:02:48.470Z,20.75
2023-02-22T23:07:45.097Z,19.33
2023-02-22T23:12:48.961Z,18.08
2023-02-22T23:18:44.213Z,19.63
2023-02-22T23:40:55.301Z,19.33
2023-02-22T23:58:09.503Z,18.95
